Time;durP1;ratioP1;P1;durP2;ratioP2;P2;SDS_P1;SDS_P2;PMS_P1;PMS_P2;Temp;Humidity;BMP_temperature;BMP_pressure;BME280_temperature;BME280_humidity;BME280_pressure;Samples;Min_cycle;Max_cycle;Signal;HPM_P1;HPM_P2
2022/06/04 00:00:01;;;;;;;9.75;3.22;;;;;;;;;;5109852;27;20051;-41
2022/06/04 00:02:26;;;;;;;8.73;3.00;;;;;;;;;;5107697;27;20042;-44
2022/06/04 00:04:52;;;;;;;5.18;2.55;;;;;;;;;;5109151;27;20056;-41
2022/06/04 00:07:17;;;;;;;9.27;3.08;;;;;;;;;;5117159;27;20085;-42
2022/06/04 00:15:29;;;;;;;5.22;2.78;;;;;;;;;;5114303;27;20082;-42
2022/06/04 00:15:30;;;;;;;4.05;2.33;;;;;;;;;;5100820;27;20042;-43
2022/06/04 00:17:55;;;;;;;5.72;2.25;;;;;;;;;;5110437;27;20125;-41
2022/06/04 00:20:21;;;;;;;3.75;2.58;;;;;;;;;;5115587;27;20952;-42
2022/06/04 00:22:46;;;;;;;4.07;2.38;;;;;;;;;;5119152;27;20039;-44
2022/06/04 00:25:13;;;;;;;4.63;3.10;;;;;;;;;;5103700;27;20412;-43
2022/06/04 00:27:38;;;;;;;2.90;1.85;;;;;;;;;;5116592;27;20052;-44
2022/06/04 00:30:05;;;;;;;4.95;2.67;;;;;;;;;;5119627;28;20043;-41
2022/06/04 00:32:30;;;;;;;8.82;3.75;;;;;;;;;;5117187;28;20047;-41
2022/06/04 00:34:56;;;;;;;5.32;4.15;;;;;;;;;;5114335;28;20098;-47
2022/06/04 00:37:21;;;;;;;12.68;4.32;;;;;;;;;;5097519;28;20089;-47
2022/06/04 00:39:47;;;;;;;11.82;5.97;;;;;;;;;;5118801;28;20522;-44
2022/06/04 00:42:14;;;;;;;9.40;4.72;;;;;;;;;;5114081;27;20047;-43
2022/06/04 00:44:45;;;;;;;7.63;4.97;;;;;;;;;;5114030;27;20079;-43
2022/06/04 00:47:10;;;;;;;7.63;5.13;;;;;;;;;;5116860;28;20055;-42
2022/06/04 00:49:36;;;;;;;8.15;3.65;;;;;;;;;;5114976;28;20404;-42
2022/06/04 00:52:03;;;;;;;14.20;5.05;;;;;;;;;;5114324;28;20500;-44
2022/06/04 00:54:28;;;;;;;3.88;3.35;;;;;;;;;;5110658;27;20044;-44
2022/06/04 00:57:13;;;;;;;13.35;4.82;;;;;;;;;;5121166;28;20483;-43
2022/06/04 00:59:50;;;;;;;6.22;4.65;;;;;;;;;;5110124;27;20073;-42
2022/06/04 01:02:22;;;;;;;5.90;4.50;;;;;;;;;;5113459;27;20048;-42
2022/06/04 01:05:02;;;;;;;7.22;4.13;;;;;;;;;;5118444;27;20051;-43
2022/06/04 01:07:40;;;;;;;4.70;3.33;;;;;;;;;;5114432;27;20054;-41
2022/06/04 01:10:16;;;;;;;25.52;5.43;;;;;;;;;;5110101;27;20092;-41
2022/06/04 01:12:44;;;;;;;10.88;5.13;;;;;;;;;;5112288;27;20047;-42
2022/06/04 01:15:26;;;;;;;7.47;3.92;;;;;;;;;;5122672;27;20043;-45
2022/06/04 01:18:07;;;;;;;5.35;3.22;;;;;;;;;;5106177;27;20044;-41
2022/06/04 01:20:43;;;;;;;7.75;4.18;;;;;;;;;;5106566;27;20066;-45
2022/06/04 01:23:18;;;;;;;5.88;3.80;;;;;;;;;;5118898;27;20126;-43
2022/06/04 01:25:43;;;;;;;7.97;3.80;;;;;;;;;;5115531;27;20509;-42
2022/06/04 01:28:11;;;;;;;6.25;3.30;;;;;;;;;;5110272;27;20143;-44
2022/06/04 01:30:39;;;;;;;7.50;3.13;;;;;;;;;;5112518;27;20103;-47
2022/06/04 01:33:11;;;;;;;9.05;4.38;;;;;;;;;;5119433;27;20042;-42
2022/06/04 01:35:40;;;;;;;10.57;3.65;;;;;;;;;;5112612;27;20134;-41
2022/06/04 01:38:17;;;;;;;5.78;3.25;;;;;;;;;;5112599;27;20043;-45
2022/06/04 01:41:06;;;;;;;6.30;3.95;;;;;;;;;;5110211;27;20050;-46
2022/06/04 01:43:42;;;;;;;7.50;3.95;;;;;;;;;;5117907;27;20135;-44
2022/06/04 01:46:29;;;;;;;7.65;4.35;;;;;;;;;;5118873;27;20558;-44
2022/06/04 01:49:16;;;;;;;6.78;3.15;;;;;;;;;;5110599;27;20492;-44
2022/06/04 01:51:42;;;;;;;6.93;2.88;;;;;;;;;;5111576;27;20611;-47
2022/06/04 01:54:14;;;;;;;8.90;3.33;;;;;;;;;;5119279;27;20035;-41
2022/06/04 01:56:42;;;;;;;7.53;4.78;;;;;;;;;;5120652;27;20142;-41
2022/06/04 01:59:31;;;;;;;8.77;4.35;;;;;;;;;;5121297;27;20495;-46
2022/06/04 02:01:57;;;;;;;6.60;3.45;;;;;;;;;;5115861;27;20070;-42
2022/06/04 02:04:25;;;;;;;8.32;4.03;;;;;;;;;;5114873;27;20051;-44
2022/06/04 02:09:47;;;;;;;3.75;2.17;;;;;;;;;;5120025;27;20054;-43
2022/06/04 02:12:13;;;;;;;10.23;3.65;;;;;;;;;;5116147;27;20531;-47
2022/06/04 02:14:40;;;;;;;13.98;3.75;;;;;;;;;;5119473;27;20039;-42
2022/06/04 02:17:06;;;;;;;12.80;3.67;;;;;;;;;;5123139;27;20058;-42
2022/06/04 02:19:32;;;;;;;11.38;4.13;;;;;;;;;;5115810;27;20078;-46
2022/06/04 02:21:57;;;;;;;4.93;3.30;;;;;;;;;;5117400;27;20066;-46
2022/06/04 02:24:23;;;;;;;5.68;3.33;;;;;;;;;;5112424;27;20074;-44
2022/06/04 02:26:48;;;;;;;4.18;1.83;;;;;;;;;;5119388;27;20054;-43
2022/06/04 02:29:14;;;;;;;6.45;3.15;;;;;;;;;;5112477;27;20047;-41
2022/06/04 02:31:39;;;;;;;9.00;3.97;;;;;;;;;;5116544;27;20051;-45
2022/06/04 02:34:27;;;;;;;4.78;2.90;;;;;;;;;;5117370;27;20115;-45
2022/06/04 02:37:11;;;;;;;3.60;1.67;;;;;;;;;;5097287;27;20047;-49
2022/06/04 02:39:43;;;;;;;5.15;2.80;;;;;;;;;;5109386;27;20046;-46
2022/06/04 02:42:13;;;;;;;3.92;2.35;;;;;;;;;;5106945;27;20148;-42
2022/06/04 02:44:44;;;;;;;8.00;3.55;;;;;;;;;;5109388;27;20133;-43
2022/06/04 02:47:13;;;;;;;3.97;2.70;;;;;;;;;;5116801;27;20062;-43
2022/06/04 02:49:44;;;;;;;9.95;2.97;;;;;;;;;;5119269;27;20047;-42
2022/06/04 02:52:11;;;;;;;12.43;2.10;;;;;;;;;;5118519;27;20035;-44
2022/06/04 02:54:41;;;;;;;4.97;2.13;;;;;;;;;;5117389;27;20400;-45
2022/06/04 02:57:10;;;;;;;5.88;1.92;;;;;;;;;;5111412;27;20051;-43
2022/06/04 02:59:35;;;;;;;3.00;1.95;;;;;;;;;;5115192;27;20047;-42
2022/06/04 03:02:01;;;;;;;3.05;1.88;;;;;;;;;;5110364;27;20043;-46
2022/06/04 03:04:27;;;;;;;5.18;2.03;;;;;;;;;;5121209;27;20078;-43
2022/06/04 03:06:52;;;;;;;6.40;2.70;;;;;;;;;;5113579;27;20043;-41
2022/06/04 03:09:19;;;;;;;2.13;1.17;;;;;;;;;;5114793;27;20027;-41
2022/06/04 03:11:46;;;;;;;4.03;2.10;;;;;;;;;;5120190;27;20035;-45
2022/06/04 03:14:12;;;;;;;4.30;1.88;;;;;;;;;;5117189;27;20055;-44
2022/06/04 03:16:39;;;;;;;4.50;1.92;;;;;;;;;;5117670;27;20574;-44
2022/06/04 03:19:05;;;;;;;4.10;2.35;;;;;;;;;;5119407;27;20138;-42
2022/06/04 03:21:30;;;;;;;14.32;2.33;;;;;;;;;;5117889;27;20130;-42
2022/06/04 03:23:55;;;;;;;2.97;2.67;;;;;;;;;;5113156;27;20055;-41
2022/06/04 03:26:21;;;;;;;8.82;1.73;;;;;;;;;;5119513;27;20038;-44
2022/06/04 03:28:46;;;;;;;1.98;1.27;;;;;;;;;;5117470;27;20046;-44
2022/06/04 03:31:11;;;;;;;5.22;3.05;;;;;;;;;;5117046;27;20050;-47
2022/06/04 03:33:37;;;;;;;5.63;1.42;;;;;;;;;;5119569;27;20050;-43
2022/06/04 03:36:02;;;;;;;2.28;1.75;;;;;;;;;;5122354;27;20043;-43
2022/06/04 03:38:28;;;;;;;3.05;1.88;;;;;;;;;;5108935;27;20043;-42
2022/06/04 03:40:53;;;;;;;2.47;1.60;;;;;;;;;;5109670;27;20035;-42
2022/06/04 03:43:18;;;;;;;3.35;2.03;;;;;;;;;;5110751;27;20052;-42
2022/06/04 03:45:44;;;;;;;2.20;1.40;;;;;;;;;;5116213;27;20122;-44
2022/06/04 03:48:09;;;;;;;6.28;3.50;;;;;;;;;;5119227;27;20035;-42
2022/06/04 03:50:34;;;;;;;3.40;1.98;;;;;;;;;;5118341;27;20063;-43
2022/06/04 03:53:00;;;;;;;5.38;2.05;;;;;;;;;;5112016;27;20126;-43
2022/06/04 03:55:25;;;;;;;7.07;1.98;;;;;;;;;;5119161;27;20819;-42
2022/06/04 03:57:52;;;;;;;5.03;2.22;;;;;;;;;;5119294;27;20473;-42
2022/06/04 04:00:17;;;;;;;3.70;2.38;;;;;;;;;;5103582;27;20044;-45
2022/06/04 04:02:44;;;;;;;6.55;2.25;;;;;;;;;;5107489;27;20044;-45
2022/06/04 04:05:11;;;;;;;2.67;1.55;;;;;;;;;;5119343;27;20059;-44
2022/06/04 04:07:37;;;;;;;3.30;1.73;;;;;;;;;;5118409;27;20041;-45
2022/06/04 04:10:02;;;;;;;3.50;1.73;;;;;;;;;;5115713;27;20122;-47
2022/06/04 04:12:28;;;;;;;5.35;2.40;;;;;;;;;;5119314;27;20496;-43
2022/06/04 04:14:54;;;;;;;5.88;2.65;;;;;;;;;;5116137;27;20044;-44
2022/06/04 04:17:19;;;;;;;3.83;2.13;;;;;;;;;;5117066;27;20054;-47
2022/06/04 04:19:45;;;;;;;3.22;1.48;;;;;;;;;;5114434;27;20069;-47
2022/06/04 04:22:10;;;;;;;6.40;3.40;;;;;;;;;;5114101;27;20174;-47
2022/06/04 04:24:36;;;;;;;4.63;2.47;;;;;;;;;;5107477;27;20051;-44
2022/06/04 04:27:01;;;;;;;5.30;3.42;;;;;;;;;;5111881;27;20473;-45
2022/06/04 04:29:26;;;;;;;7.38;3.67;;;;;;;;;;5113789;28;20047;-44
2022/06/04 04:31:52;;;;;;;11.73;2.70;;;;;;;;;;5105259;27;20051;-44
2022/06/04 04:34:17;;;;;;;6.40;3.17;;;;;;;;;;5119680;27;20054;-44
2022/06/04 04:36:45;;;;;;;6.15;2.40;;;;;;;;;;5116037;27;20097;-46
2022/06/04 04:39:10;;;;;;;7.13;3.47;;;;;;;;;;5123361;27;20051;-42
2022/06/04 04:41:36;;;;;;;2.95;2.20;;;;;;;;;;5115018;27;20127;-44
2022/06/04 04:44:02;;;;;;;4.90;2.42;;;;;;;;;;5116972;27;20048;-47
2022/06/04 04:46:27;;;;;;;9.45;2.33;;;;;;;;;;5120563;27;20047;-43
2022/06/04 04:48:52;;;;;;;4.40;1.98;;;;;;;;;;5125234;27;20036;-43
2022/06/04 04:51:20;;;;;;;5.00;1.45;;;;;;;;;;5121271;27;20076;-43
2022/06/04 04:53:47;;;;;;;4.50;2.20;;;;;;;;;;5124419;27;20039;-43
2022/06/04 04:56:16;;;;;;;10.68;3.63;;;;;;;;;;5127526;27;20078;-43
2022/06/04 04:58:41;;;;;;;6.55;3.28;;;;;;;;;;5121014;27;20039;-46
2022/06/04 05:01:14;;;;;;;6.18;2.55;;;;;;;;;;5110475;27;20054;-45
2022/06/04 05:03:39;;;;;;;4.82;2.58;;;;;;;;;;5123138;27;20077;-44
2022/06/04 05:06:05;;;;;;;7.55;3.88;;;;;;;;;;5120524;27;20043;-43
2022/06/04 05:08:30;;;;;;;4.47;2.63;;;;;;;;;;5128569;27;20050;-44
2022/06/04 05:10:55;;;;;;;14.32;3.53;;;;;;;;;;5123202;27;20039;-42
2022/06/04 05:13:21;;;;;;;3.83;2.30;;;;;;;;;;5122105;27;20031;-45
2022/06/04 05:15:46;;;;;;;5.05;3.13;;;;;;;;;;5124555;27;20039;-46
2022/06/04 05:18:12;;;;;;;5.68;3.33;;;;;;;;;;5125612;27;20079;-43
2022/06/04 05:20:37;;;;;;;2.90;1.75;;;;;;;;;;5122792;27;20057;-46
2022/06/04 05:23:03;;;;;;;3.75;2.63;;;;;;;;;;5121912;27;21628;-45
2022/06/04 05:25:28;;;;;;;9.63;3.80;;;;;;;;;;5120845;27;20047;-42
2022/06/04 05:27:53;;;;;;;5.50;2.55;;;;;;;;;;5121371;27;20051;-45
2022/06/04 05:30:19;;;;;;;6.72;3.65;;;;;;;;;;5117763;27;20071;-45
2022/06/04 05:32:44;;;;;;;9.10;3.03;;;;;;;;;;5118648;27;20136;-46
2022/06/04 05:35:09;;;;;;;5.40;3.38;;;;;;;;;;5118592;27;20046;-43
2022/06/04 05:37:35;;;;;;;6.43;3.28;;;;;;;;;;5120548;27;20060;-43
2022/06/04 05:40:00;;;;;;;4.13;2.40;;;;;;;;;;5121601;27;20519;-43
2022/06/04 05:42:26;;;;;;;4.68;3.22;;;;;;;;;;5121278;27;20047;-41
2022/06/04 05:44:52;;;;;;;3.15;2.55;;;;;;;;;;5107967;27;20506;-44
2022/06/04 05:47:17;;;;;;;4.82;2.85;;;;;;;;;;5107742;27;20480;-41
2022/06/04 05:49:43;;;;;;;6.43;3.97;;;;;;;;;;5109878;27;20043;-42
2022/06/04 05:52:08;;;;;;;3.90;3.10;;;;;;;;;;5112828;27;20431;-43
2022/06/04 05:54:33;;;;;;;12.02;4.75;;;;;;;;;;5116746;27;20036;-46
2022/06/04 05:56:59;;;;;;;8.65;3.30;;;;;;;;;;5121203;27;20067;-43
2022/06/04 05:59:24;;;;;;;4.95;4.30;;;;;;;;;;5122217;27;20125;-43
2022/06/04 06:01:50;;;;;;;5.60;3.83;;;;;;;;;;5119038;27;20043;-44
2022/06/04 06:04:16;;;;;;;9.30;4.55;;;;;;;;;;5119600;27;20860;-44
2022/06/04 06:06:44;;;;;;;5.85;4.28;;;;;;;;;;5111331;27;20623;-46
2022/06/04 06:09:10;;;;;;;5.82;3.20;;;;;;;;;;5116232;27;20059;-44
2022/06/04 06:11:36;;;;;;;9.57;3.95;;;;;;;;;;5114607;27;20054;-42
2022/06/04 06:14:01;;;;;;;9.63;3.10;;;;;;;;;;5120704;27;20040;-42
2022/06/04 06:16:28;;;;;;;4.38;3.95;;;;;;;;;;5120643;27;20047;-44
2022/06/04 06:18:58;;;;;;;8.43;3.25;;;;;;;;;;5119109;27;20035;-45
2022/06/04 06:21:24;;;;;;;3.30;2.90;;;;;;;;;;5120929;27;20102;-44
2022/06/04 06:23:50;;;;;;;12.40;3.22;;;;;;;;;;5122195;27;20039;-64
2022/06/04 06:26:17;;;;;;;14.05;4.25;;;;;;;;;;5115346;27;20070;-62
2022/06/04 06:28:43;;;;;;;4.20;3.42;;;;;;;;;;5118163;27;20039;-64
2022/06/04 06:31:09;;;;;;;4.68;3.65;;;;;;;;;;5117479;27;20523;-62
2022/06/04 06:33:35;;;;;;;10.43;4.80;;;;;;;;;;5118034;27;20138;-59
2022/06/04 06:36:03;;;;;;;6.88;3.03;;;;;;;;;;5117452;27;20115;-59
2022/06/04 06:38:28;;;;;;;16.20;9.90;;;;;;;;;;5114009;27;20681;-59
2022/06/04 06:40:55;;;;;;;3.40;2.78;;;;;;;;;;5113153;27;20086;-60
2022/06/04 06:43:21;;;;;;;5.90;3.65;;;;;;;;;;5111603;27;20078;-59
2022/06/04 06:45:46;;;;;;;5.40;3.20;;;;;;;;;;5111945;27;20075;-63
2022/06/04 06:48:12;;;;;;;4.15;2.53;;;;;;;;;;5109600;27;20529;-65
2022/06/04 06:50:38;;;;;;;7.43;3.58;;;;;;;;;;5113604;27;20492;-66
2022/06/04 06:53:03;;;;;;;12.57;8.77;;;;;;;;;;5117416;27;20061;-63
2022/06/04 06:55:28;;;;;;;3.72;2.90;;;;;;;;;;5120018;27;20523;-63
2022/06/04 06:57:54;;;;;;;9.07;3.67;;;;;;;;;;5111104;27;20120;-65
2022/06/04 07:00:19;;;;;;;3.67;2.60;;;;;;;;;;5120159;27;20340;-64
2022/06/04 07:02:44;;;;;;;6.88;4.88;;;;;;;;;;5115462;27;20613;-64
2022/06/04 07:05:10;;;;;;;6.72;5.70;;;;;;;;;;5107861;27;20052;-65
2022/06/04 07:07:35;;;;;;;7.28;5.90;;;;;;;;;;5112918;27;20150;-64
2022/06/04 07:10:01;;;;;;;6.45;4.90;;;;;;;;;;5115201;27;20817;-65
2022/06/04 07:12:26;;;;;;;9.45;5.88;;;;;;;;;;5116785;27;20159;-65
2022/06/04 07:14:51;;;;;;;7.35;4.80;;;;;;;;;;5117381;27;20535;-65
2022/06/04 07:17:17;;;;;;;7.68;5.00;;;;;;;;;;5119435;27;20160;-65
2022/06/04 07:19:42;;;;;;;24.67;7.55;;;;;;;;;;5116389;27;20468;-65
2022/06/04 07:22:08;;;;;;;8.05;4.15;;;;;;;;;;5115182;27;20042;-65
2022/06/04 07:24:35;;;;;;;37.58;6.20;;;;;;;;;;5117918;27;20058;-64
2022/06/04 07:27:00;;;;;;;9.57;5.18;;;;;;;;;;5116264;27;20058;-65
2022/06/04 07:29:26;;;;;;;6.20;5.53;;;;;;;;;;5115272;27;20062;-64
2022/06/04 07:31:52;;;;;;;12.32;5.45;;;;;;;;;;5107020;27;20051;-65
2022/06/04 07:34:17;;;;;;;7.93;6.97;;;;;;;;;;5103335;27;20062;-65
2022/06/04 07:36:44;;;;;;;17.10;7.68;;;;;;;;;;5102446;27;20543;-65
2022/06/04 07:39:10;;;;;;;16.70;7.55;;;;;;;;;;5106704;27;20185;-65
2022/06/04 07:41:38;;;;;;;10.10;9.07;;;;;;;;;;5111925;27;20078;-65
2022/06/04 07:44:04;;;;;;;15.25;10.07;;;;;;;;;;5117193;27;20043;-64
2022/06/04 07:46:30;;;;;;;12.63;11.30;;;;;;;;;;5114649;27;20082;-64
2022/06/04 07:48:56;;;;;;;14.50;10.30;;;;;;;;;;5115328;27;21025;-64
2022/06/04 07:51:22;;;;;;;11.52;6.72;;;;;;;;;;5112824;27;20051;-64
2022/06/04 07:53:47;;;;;;;14.95;10.85;;;;;;;;;;5111840;27;20044;-66
2022/06/04 07:56:14;;;;;;;13.43;10.13;;;;;;;;;;5111031;27;20492;-64
2022/06/04 07:58:40;;;;;;;12.27;6.78;;;;;;;;;;5115318;27;20046;-64
2022/06/04 08:01:06;;;;;;;7.55;5.90;;;;;;;;;;5111714;27;20046;-63
2022/06/04 08:03:33;;;;;;;14.90;7.78;;;;;;;;;;5112799;27;20039;-63
2022/06/04 08:05:59;;;;;;;12.88;7.78;;;;;;;;;;5112655;27;20084;-63
2022/06/04 08:08:24;;;;;;;14.10;7.68;;;;;;;;;;5111455;27;20709;-63
2022/06/04 08:10:50;;;;;;;8.48;5.15;;;;;;;;;;5112943;27;20454;-65
2022/06/04 08:13:37;;;;;;;19.80;7.93;;;;;;;;;;5108671;27;20530;-69
2022/06/04 08:16:01;;;;;;;4.57;3.85;;;;;;;;;;5111078;27;20051;-67
2022/06/04 08:18:27;;;;;;;5.75;3.45;;;;;;;;;;5118993;27;20047;-70
2022/06/04 08:20:55;;;;;;;11.60;3.92;;;;;;;;;;5113534;27;20532;-67
2022/06/04 08:23:20;;;;;;;6.45;2.45;;;;;;;;;;5118768;27;20116;-65
2022/06/04 08:25:50;;;;;;;10.13;3.72;;;;;;;;;;5118779;27;20503;-65
2022/06/04 08:28:15;;;;;;;4.40;2.72;;;;;;;;;;5119498;27;20133;-65
2022/06/04 08:30:41;;;;;;;9.02;4.95;;;;;;;;;;5117845;27;20556;-65
2022/06/04 08:33:07;;;;;;;3.10;2.70;;;;;;;;;;5109891;28;20544;-65
2022/06/04 08:35:32;;;;;;;4.50;2.30;;;;;;;;;;5114467;28;20131;-65
2022/06/04 08:37:58;;;;;;;4.97;3.55;;;;;;;;;;5114578;28;20682;-65
2022/06/04 08:40:37;;;;;;;4.75;2.17;;;;;;;;;;5114747;28;20644;-65
2022/06/04 08:43:23;;;;;;;4.82;2.05;;;;;;;;;;5117214;28;20086;-65
2022/06/04 08:45:48;;;;;;;21.85;4.13;;;;;;;;;;5112528;28;20142;-65
2022/06/04 08:48:19;;;;;;;4.35;1.67;;;;;;;;;;5118831;28;20146;-66
2022/06/04 08:50:46;;;;;;;3.60;2.15;;;;;;;;;;5098790;28;20040;-65
2022/06/04 08:53:16;;;;;;;9.18;4.00;;;;;;;;;;5113957;28;20062;-65
2022/06/04 08:58:44;;;;;;;6.47;3.97;;;;;;;;;;5112197;28;19930;-65
2022/06/04 09:01:18;;;;;;;11.75;2.88;;;;;;;;;;5120497;28;20111;-64
2022/06/04 09:03:53;;;;;;;4.45;2.78;;;;;;;;;;5116812;28;20197;-64
2022/06/04 09:06:24;;;;;;;17.08;2.95;;;;;;;;;;5120289;28;20133;-65
2022/06/04 09:08:58;;;;;;;5.93;3.33;;;;;;;;;;5116802;28;20051;-65
2022/06/04 09:11:29;;;;;;;7.05;4.35;;;;;;;;;;5119010;28;20063;-65
2022/06/04 09:13:54;;;;;;;12.48;4.20;;;;;;;;;;5105494;28;20046;-65
2022/06/04 09:16:30;;;;;;;9.40;3.67;;;;;;;;;;5115367;28;20047;-65
2022/06/04 09:18:58;;;;;;;9.30;4.43;;;;;;;;;;5118734;28;20043;-65
2022/06/04 09:21:26;;;;;;;7.60;3.95;;;;;;;;;;5121112;27;20605;-65
2022/06/04 09:23:51;;;;;;;3.95;2.90;;;;;;;;;;5122247;27;20043;-64
2022/06/04 09:26:27;;;;;;;6.90;3.53;;;;;;;;;;5119444;27;20061;-65
2022/06/04 09:29:11;;;;;;;11.10;7.97;;;;;;;;;;5120251;27;20140;-65
2022/06/04 09:31:39;;;;;;;6.72;5.40;;;;;;;;;;5120898;27;20216;-65
2022/06/04 09:34:08;;;;;;;6.00;4.93;;;;;;;;;;5123197;27;20035;-64
2022/06/04 09:36:34;;;;;;;6.13;3.45;;;;;;;;;;5119596;27;20415;-65
2022/06/04 09:39:00;;;;;;;6.03;4.22;;;;;;;;;;5117629;27;20058;-65
2022/06/04 09:41:28;;;;;;;14.70;4.60;;;;;;;;;;5121863;27;20048;-64
2022/06/04 09:44:05;;;;;;;7.57;3.88;;;;;;;;;;5121990;27;20089;-64
2022/06/04 09:46:31;;;;;;;15.63;5.28;;;;;;;;;;5116482;27;20058;-66
2022/06/04 09:48:57;;;;;;;6.07;3.63;;;;;;;;;;5118667;27;20043;-65
2022/06/04 09:51:24;;;;;;;5.82;2.63;;;;;;;;;;5111926;27;20039;-65
2022/06/04 09:53:52;;;;;;;7.32;3.08;;;;;;;;;;5106047;27;20042;-64
2022/06/04 09:56:29;;;;;;;10.30;4.72;;;;;;;;;;5117236;27;20092;-65
2022/06/04 09:59:06;;;;;;;8.02;2.55;;;;;;;;;;5116534;27;20062;-65
2022/06/04 10:01:31;;;;;;;4.70;1.65;;;;;;;;;;5117336;27;20035;-63
2022/06/04 10:03:58;;;;;;;4.32;2.33;;;;;;;;;;5116309;27;20046;-63
2022/06/04 10:06:24;;;;;;;4.85;3.20;;;;;;;;;;5117055;27;20077;-65
2022/06/04 10:11:47;;;;;;;4.95;2.65;;;;;;;;;;5117884;27;20092;-60
2022/06/04 10:14:12;;;;;;;7.72;2.63;;;;;;;;;;5121841;27;20048;-64
2022/06/04 10:16:44;;;;;;;18.10;2.95;;;;;;;;;;5118022;27;20514;-64
2022/06/04 10:19:12;;;;;;;3.45;1.45;;;;;;;;;;5109902;27;20561;-64
2022/06/04 10:21:41;;;;;;;8.70;3.67;;;;;;;;;;5114908;27;20058;-63
2022/06/04 10:24:26;;;;;;;6.65;2.80;;;;;;;;;;5116234;27;20063;-65
2022/06/04 10:26:57;;;;;;;13.02;4.95;;;;;;;;;;5113629;27;20108;-65
2022/06/04 10:29:26;;;;;;;13.40;3.28;;;;;;;;;;5108192;27;20054;-66
2022/06/04 10:32:02;;;;;;;12.32;2.78;;;;;;;;;;5116188;27;20046;-64
2022/06/04 10:34:34;;;;;;;6.82;3.20;;;;;;;;;;5112440;27;20096;-65
2022/06/04 10:37:11;;;;;;;6.80;1.98;;;;;;;;;;5111699;27;20087;-65
2022/06/04 10:39:57;;;;;;;4.75;2.72;;;;;;;;;;5116926;27;20081;-65
2022/06/04 10:42:32;;;;;;;21.70;5.35;;;;;;;;;;5117886;27;20039;-65
2022/06/04 10:45:14;;;;;;;12.45;3.38;;;;;;;;;;5118505;27;20134;-65
2022/06/04 10:47:45;;;;;;;8.50;4.10;;;;;;;;;;5116602;27;20069;-65
2022/06/04 10:50:18;;;;;;;7.80;3.22;;;;;;;;;;5115240;27;20035;-64
2022/06/04 10:53:07;;;;;;;2.15;1.40;;;;;;;;;;5115671;27;20040;-65
2022/06/04 10:55:39;;;;;;;14.38;3.85;;;;;;;;;;5108908;27;20047;-65
2022/06/04 10:58:05;;;;;;;7.78;1.70;;;;;;;;;;5117988;27;20484;-65
2022/06/04 11:00:43;;;;;;;5.50;2.80;;;;;;;;;;5116548;27;20039;-66
2022/06/04 11:03:15;;;;;;;17.02;3.53;;;;;;;;;;5116253;27;20074;-65
2022/06/04 11:06:00;;;;;;;9.90;4.75;;;;;;;;;;5114961;27;20059;-65
2022/06/04 11:08:31;;;;;;;11.20;2.70;;;;;;;;;;5104503;27;20055;-66
2022/06/04 11:11:03;;;;;;;11.43;3.53;;;;;;;;;;5106279;27;20043;-65
2022/06/04 11:13:31;;;;;;;9.10;3.65;;;;;;;;;;5105279;27;20044;-66
2022/06/04 11:15:57;;;;;;;23.23;4.80;;;;;;;;;;5110911;27;20118;-65
2022/06/04 11:18:32;;;;;;;4.30;2.15;;;;;;;;;;5116434;27;20126;-66
2022/06/04 11:21:01;;;;;;;5.35;2.55;;;;;;;;;;5119262;27;20043;-65
2022/06/04 11:23:33;;;;;;;16.17;3.75;;;;;;;;;;5108449;27;20047;-65
2022/06/04 11:26:03;;;;;;;8.05;2.63;;;;;;;;;;5107857;27;20115;-65
2022/06/04 11:28:28;;;;;;;;;;;;;;;;;;5114459;27;20039;-65
2022/06/04 11:31:01;;;;;;;7.63;3.07;;;;;;;;;;5114150;27;19998;-66
2022/06/04 11:33:26;;;;;;;4.72;2.08;;;;;;;;;;5115024;27;20044;-66
2022/06/04 11:36:05;;;;;;;5.68;3.08;;;;;;;;;;5118207;27;20062;-65
2022/06/04 11:38:39;;;;;;;6.97;1.05;;;;;;;;;;5119439;27;20168;-66
2022/06/04 11:41:22;;;;;;;12.18;2.67;;;;;;;;;;5117519;27;20063;-65
2022/06/04 11:44:03;;;;;;;5.75;3.13;;;;;;;;;;5115181;27;20043;-65
2022/06/04 11:46:28;;;;;;;26.30;4.28;;;;;;;;;;5118787;27;20120;-66
2022/06/04 11:49:06;;;;;;;10.85;3.78;;;;;;;;;;5118239;27;20051;-65
2022/06/04 11:51:44;;;;;;;5.63;2.42;;;;;;;;;;5116763;27;20154;-65
2022/06/04 11:54:28;;;;;;;9.57;2.28;;;;;;;;;;5115339;27;20063;-65
2022/06/04 11:57:14;;;;;;;4.57;1.80;;;;;;;;;;5118470;27;20103;-65
2022/06/04 11:59:55;;;;;;;4.05;3.08;;;;;;;;;;5111488;27;20051;-65
2022/06/04 12:02:29;;;;;;;5.30;2.58;;;;;;;;;;5120500;27;20086;-66
2022/06/04 12:05:01;;;;;;;17.45;3.00;;;;;;;;;;5117363;27;20059;-65
2022/06/04 12:07:37;;;;;;;11.43;2.35;;;;;;;;;;5119202;27;20057;-65
2022/06/04 12:10:03;;;;;;;6.53;1.80;;;;;;;;;;5116848;27;20072;-65
2022/06/04 12:12:31;;;;;;;3.88;2.03;;;;;;;;;;5113862;27;20574;-66
2022/06/04 12:14:56;;;;;;;8.95;2.80;;;;;;;;;;5114390;27;20308;-66
2022/06/04 12:17:24;;;;;;;5.90;3.17;;;;;;;;;;5101386;27;20483;-66
2022/06/04 12:25:34;;;;;;;8.60;2.95;;;;;;;;;;5118687;27;20483;-66
2022/06/04 12:28:01;;;;;;;29.60;3.43;;;;;;;;;;5114862;27;20058;-66
2022/06/04 12:30:42;;;;;;;11.57;3.97;;;;;;;;;;5114705;27;20451;-66
2022/06/04 12:33:31;;;;;;;17.23;3.42;;;;;;;;;;5112783;28;20078;-66
2022/06/04 12:36:19;;;;;;;8.25;3.75;;;;;;;;;;5105634;28;20034;-66
2022/06/04 12:38:45;;;;;;;6.57;3.80;;;;;;;;;;5114458;28;20142;-66
2022/06/04 12:41:20;;;;;;;6.95;2.90;;;;;;;;;;5113234;28;20078;-66
2022/06/04 12:43:47;;;;;;;7.40;2.35;;;;;;;;;;5115919;28;20043;-66
2022/06/04 12:46:21;;;;;;;4.30;2.35;;;;;;;;;;5113117;28;20126;-66
2022/06/04 12:48:55;;;;;;;20.35;3.97;;;;;;;;;;5118777;28;20039;-66
2022/06/04 12:51:40;;;;;;;7.35;3.20;;;;;;;;;;5116457;28;20039;-66
2022/06/04 12:54:08;;;;;;;5.70;2.65;;;;;;;;;;5117085;28;20039;-66
2022/06/04 12:56:35;;;;;;;7.93;2.13;;;;;;;;;;5121680;27;20150;-66
2022/06/04 12:59:02;;;;;;;3.63;2.65;;;;;;;;;;5120730;27;20500;-66
2022/06/04 13:01:32;;;;;;;12.60;3.95;;;;;;;;;;5122498;27;20047;-66
2022/06/04 13:04:06;;;;;;;5.32;2.75;;;;;;;;;;5123488;27;20035;-66
2022/06/04 13:06:43;;;;;;;9.73;3.80;;;;;;;;;;5110257;27;20141;-66
2022/06/04 13:09:13;;;;;;;7.72;3.13;;;;;;;;;;5117008;27;20108;-66
2022/06/04 13:12:11;;;;;;;8.32;3.90;;;;;;;;;;5122556;27;20042;-66
2022/06/04 13:14:36;;;;;;;14.32;3.08;;;;;;;;;;5099387;27;20081;-66
2022/06/04 13:17:30;;;;;;;7.65;2.58;;;;;;;;;;5117345;27;20109;-66
2022/06/04 13:20:01;;;;;;;4.80;2.95;;;;;;;;;;5105731;27;20069;-66
2022/06/04 13:22:29;;;;;;;8.88;3.92;;;;;;;;;;5119084;27;20111;-66
2022/06/04 13:24:56;;;;;;;16.13;4.78;;;;;;;;;;5120422;27;20527;-64
2022/06/04 13:27:35;;;;;;;17.45;4.13;;;;;;;;;;5119392;27;20071;-65
2022/06/04 13:30:01;;;;;;;11.68;4.25;;;;;;;;;;5119768;27;20142;-65
2022/06/04 13:32:26;;;;;;;6.22;4.40;;;;;;;;;;5110115;27;20555;-66
2022/06/04 13:35:00;;;;;;;7.78;3.78;;;;;;;;;;5116520;27;20162;-66
2022/06/04 13:37:26;;;;;;;8.93;3.85;;;;;;;;;;5112292;27;20043;-66
2022/06/04 13:39:52;;;;;;;13.27;3.35;;;;;;;;;;5118666;27;20051;-66
2022/06/04 13:42:24;;;;;;;4.60;3.25;;;;;;;;;;5120443;27;20035;-66
2022/06/04 13:44:55;;;;;;;6.88;3.25;;;;;;;;;;5117482;27;20057;-66
2022/06/04 13:47:20;;;;;;;;;;;;;;;;;;5120176;27;20049;-67
2022/06/04 13:49:47;;;;;;;5.23;2.00;;;;;;;;;;5122833;27;19915;-66
2022/06/04 13:52:35;;;;;;;11.50;3.20;;;;;;;;;;5115821;27;20044;-66
2022/06/04 13:55:04;;;;;;;10.15;3.17;;;;;;;;;;5112138;27;20043;-66
2022/06/04 13:57:36;;;;;;;8.05;3.60;;;;;;;;;;5119840;27;20040;-67
2022/06/04 14:00:04;;;;;;;3.50;2.40;;;;;;;;;;5116391;27;20479;-66
2022/06/04 14:02:30;;;;;;;5.18;2.50;;;;;;;;;;5102860;27;20046;-66
2022/06/04 14:07:42;;;;;;;10.48;3.65;;;;;;;;;;5119023;27;20086;-66
2022/06/04 14:10:15;;;;;;;6.57;2.50;;;;;;;;;;5110025;27;20044;-66
2022/06/04 14:12:47;;;;;;;2.45;1.60;;;;;;;;;;5110472;27;20035;-66
2022/06/04 14:15:22;;;;;;;3.47;2.55;;;;;;;;;;5114588;27;20095;-66
2022/06/04 14:18:06;;;;;;;4.32;2.88;;;;;;;;;;5106745;27;20055;-66
2022/06/04 14:20:42;;;;;;;5.55;2.28;;;;;;;;;;5117545;27;20048;-66
2022/06/04 14:23:15;;;;;;;3.92;1.75;;;;;;;;;;5114383;27;20066;-66
2022/06/04 14:25:52;;;;;;;6.18;3.22;;;;;;;;;;5115440;27;20098;-66
2022/06/04 14:28:26;;;;;;;6.80;2.33;;;;;;;;;;5115538;27;20184;-66
2022/06/04 14:30:57;;;;;;;7.68;3.00;;;;;;;;;;5118454;27;20046;-65
2022/06/04 14:33:23;;;;;;;12.88;3.63;;;;;;;;;;5111919;27;20047;-67
2022/06/04 14:35:57;;;;;;;10.60;2.90;;;;;;;;;;5113304;27;20075;-67
2022/06/04 14:38:23;;;;;;;14.02;4.55;;;;;;;;;;5117898;27;20078;-66
2022/06/04 14:40:58;;;;;;;8.07;2.47;;;;;;;;;;5110341;27;20048;-67
2022/06/04 14:43:42;;;;;;;15.95;4.15;;;;;;;;;;5116564;27;20047;-67
2022/06/04 14:46:13;;;;;;;3.13;2.20;;;;;;;;;;5116456;27;20085;-66
2022/06/04 14:48:51;;;;;;;10.32;3.65;;;;;;;;;;5117370;27;20054;-67
2022/06/04 14:51:24;;;;;;;6.45;2.20;;;;;;;;;;5119855;27;20507;-67
2022/06/04 14:53:51;;;;;;;6.85;2.08;;;;;;;;;;5098256;27;20567;-66
2022/06/04 14:56:16;;;;;;;4.55;2.15;;;;;;;;;;5118832;27;20573;-67
2022/06/04 14:59:05;;;;;;;14.68;4.90;;;;;;;;;;5118350;27;20047;-66
2022/06/04 15:01:30;;;;;;;4.63;2.17;;;;;;;;;;5075023;27;20039;-67
2022/06/04 15:04:10;;;;;;;3.40;2.05;;;;;;;;;;5111631;27;20047;-67
2022/06/04 15:06:51;;;;;;;6.35;2.75;;;;;;;;;;5099925;27;20581;-66
2022/06/04 15:09:28;;;;;;;1.98;1.27;;;;;;;;;;5109657;27;20039;-66
2022/06/04 15:12:06;;;;;;;5.80;2.38;;;;;;;;;;5114014;27;20044;-66
2022/06/04 15:14:38;;;;;;;6.00;2.80;;;;;;;;;;5106166;27;20036;-66